Terminal Aerodrome Forecast
Issued by NWS

Home | Current Version | Previous Version | Text Only | Print | Product List | Glossary On
Versions: 1 2 3 4 5 6 7 8 9 10 11 12 13
000
FTUS43 KDVN 231700
TAFBRL
TAF
KBRL 231722Z 2318/2418 20013KT P6SM VCSH BKN040 OVC100
     FM232200 20008KT P6SM OVC035
     FM240200 22003KT P6SM BKN035
     FM240600 22003KT 5SM BR FEW007 BKN035
     FM241000 22003KT 2SM BR SCT007 BKN035
     FM241500 19006KT 6SM BR SCT007 SCT035=

USA.gov is the U.S. government's official web portal to all federal, state and local government web resources and services.